Current | Forecast
Updated: 1:30 AM MSK on November 22, 2017
Observed at Begishevo, Russia
Temperature 28°F
Windchill 21°F
Humidity 86%
Dew Point 25°F
Wind ESE at 7 mph
Pressure 29.83 in (Steady)
Conditions Clear
Visibility -
UV N/A
Clouds
Yesterday's Maximum 37°F
Yesterday's Minimum 30°F approx.
Yesterday's Heating Degree Days 31 approx.
Sunrise7:24 AM MSK
Sunset3:22 PM MSK
Moon Rise10:29 AM MSK
Moon Set6:31 PM MSK
Moon PhaseMoon Phase
Waxing Crescent
Raw METARMETAR UWKE 212230Z 11003MPS CAVOK M02/M04 Q1010 R03/090070 NOSIG RMK QFE741/0988


Monday
. High: 71° F.
Tuesday
. High: 75° F.
Wednesday
. High: 59° F.
Thursday
. High: 60° F.
Friday
. High: 55° F.
Saturday
. High: 60° F.
Sunday
. High: 60° F.
Monday
. High: 60° F.

Units: English | Metric

Find the Weather for any City, State or Zipcode, or Country:

U.S. State List | Severe Weather | Tropical Storms | Ski Conditions
United States | Canada | Central America | South America | Asia | Europe | Australia | Africa | Islands

Weather Underground

© Copyright 2017
The Weather Company, LLC